createdAt,value
2022-08-20T00:02:07.601Z,21.05
2022-08-20T00:04:33.987Z,20.98
2022-08-20T00:07:00.310Z,21.01
2022-08-20T00:09:26.753Z,20.99
2022-08-20T00:11:56.327Z,20.97
2022-08-20T00:14:22.764Z,21.02
2022-08-20T00:16:49.117Z,20.92
2022-08-20T00:19:15.485Z,21.03
2022-08-20T00:21:41.801Z,21.01
2022-08-20T00:24:08.443Z,21.04
2022-08-20T00:26:34.873Z,21.10
2022-08-20T00:29:04.086Z,21.13
2022-08-20T00:31:30.411Z,21.09
2022-08-20T00:33:56.766Z,21.00
2022-08-20T00:36:32.325Z,20.94
2022-08-20T00:39:00.177Z,20.73
2022-08-20T00:41:27.350Z,20.70
2022-08-20T00:44:12.239Z,20.59
2022-08-20T00:46:39.891Z,20.59
2022-08-20T00:49:08.696Z,20.50
2022-08-20T00:51:43.605Z,20.47
2022-08-20T00:54:18.691Z,20.40
2022-08-20T00:56:49.351Z,20.34
2022-08-20T00:59:20.782Z,20.33
2022-08-20T01:01:56.147Z,20.31
2022-08-20T01:04:27.701Z,20.31
2022-08-20T01:06:54.859Z,20.28
2022-08-20T01:09:49.675Z,20.33
2022-08-20T01:12:09.680Z,20.32
2022-08-20T01:14:36.070Z,20.34
2022-08-20T01:17:06.947Z,20.37
2022-08-20T01:19:41.207Z,20.35
2022-08-20T01:22:08.992Z,20.31
2022-08-20T01:24:39.570Z,20.26
2022-08-20T01:27:06.736Z,20.21
2022-08-20T01:29:39.610Z,20.16
2022-08-20T01:32:06.963Z,20.18
2022-08-20T01:34:33.301Z,20.20
2022-08-20T01:36:59.715Z,20.11
2022-08-20T01:39:33.851Z,20.17
2022-08-20T01:42:18.083Z,20.15
2022-08-20T01:44:46.201Z,20.19
2022-08-20T01:47:23.843Z,20.24
2022-08-20T01:49:53.731Z,20.29
2022-08-20T01:52:36.545Z,20.23
2022-08-20T01:55:04.436Z,20.19
2022-08-20T01:57:30.938Z,20.23
2022-08-20T01:59:57.292Z,20.32
2022-08-20T02:02:25.679Z,20.24
2022-08-20T02:04:52.035Z,20.16
2022-08-20T02:07:21.998Z,20.14
2022-08-20T02:09:49.310Z,20.09
2022-08-20T02:12:16.346Z,20.11
2022-08-20T02:14:53.941Z,20.09
2022-08-20T02:17:22.930Z,20.21
2022-08-20T02:19:55.199Z,20.14
2022-08-20T02:22:29.676Z,20.12
2022-08-20T02:24:56.155Z,20.08
2022-08-20T02:27:22.517Z,20.05
2022-08-20T02:29:49.791Z,20.04
2022-08-20T02:32:32.538Z,20.06
2022-08-20T02:35:03.017Z,20.05
2022-08-20T02:37:29.580Z,20.06
2022-08-20T02:39:55.985Z,20.00
2022-08-20T02:42:22.409Z,20.00
2022-08-20T02:44:48.743Z,20.00
2022-08-20T02:47:15.176Z,19.77
2022-08-20T02:49:41.512Z,19.67
2022-08-20T02:52:08.176Z,19.66
2022-08-20T02:54:34.535Z,19.57
2022-08-20T02:57:00.890Z,19.56
2022-08-20T02:59:27.220Z,19.51
2022-08-20T03:02:00.260Z,19.43
2022-08-20T03:04:29.266Z,19.29
2022-08-20T03:06:56.281Z,19.35
2022-08-20T03:09:22.711Z,19.34
2022-08-20T03:11:49.067Z,19.25
2022-08-20T03:14:15.409Z,19.36
2022-08-20T03:16:41.723Z,19.54
2022-08-20T03:19:08.058Z,19.50
2022-08-20T03:21:34.388Z,19.46
2022-08-20T03:24:00.813Z,19.45
2022-08-20T03:26:27.150Z,19.42
2022-08-20T03:28:53.494Z,19.46
2022-08-20T03:31:19.847Z,19.58
2022-08-20T03:33:52.329Z,19.61
2022-08-20T03:36:20.831Z,19.66
2022-08-20T03:38:55.328Z,19.62
2022-08-20T03:41:21.809Z,19.57
2022-08-20T03:43:48.180Z,19.52
2022-08-20T03:46:23.095Z,19.59
2022-08-20T03:48:50.772Z,19.55
2022-08-20T03:51:26.006Z,19.52
2022-08-20T03:53:52.399Z,19.52
2022-08-20T03:56:18.744Z,19.49
2022-08-20T03:58:45.098Z,19.47
2022-08-20T04:01:37.101Z,19.47
2022-08-20T04:03:57.763Z,19.35
2022-08-20T04:06:24.835Z,19.35
2022-08-20T04:08:51.170Z,19.41
2022-08-20T04:11:17.510Z,19.32
2022-08-20T04:13:43.858Z,19.25
2022-08-20T04:16:13.442Z,19.48
2022-08-20T04:18:41.482Z,19.32
2022-08-20T04:21:22.539Z,19.19
2022-08-20T04:23:49.254Z,19.22
2022-08-20T04:26:15.600Z,19.10
2022-08-20T04:28:42.201Z,19.22
2022-08-20T04:31:08.540Z,19.16
2022-08-20T04:33:35.410Z,19.23
2022-08-20T04:36:03.648Z,19.22
2022-08-20T04:38:47.628Z,19.06
2022-08-20T04:41:22.509Z,19.06
2022-08-20T04:43:51.739Z,18.99
2022-08-20T04:46:18.267Z,18.92
2022-08-20T04:48:48.731Z,18.85
2022-08-20T04:51:15.598Z,18.83
2022-08-20T04:53:42.640Z,18.73
2022-08-20T04:56:09.071Z,18.76
2022-08-20T04:58:39.068Z,19.06
2022-08-20T05:01:09.178Z,19.16
2022-08-20T05:03:37.677Z,19.11
2022-08-20T05:06:06.119Z,18.90
2022-08-20T05:08:33.862Z,19.00
2022-08-20T05:11:35.012Z,19.07
2022-08-20T05:13:46.571Z,19.05
2022-08-20T05:16:13.219Z,19.20
2022-08-20T05:18:39.576Z,19.13
2022-08-20T05:21:06.186Z,19.23
2022-08-20T05:23:38.217Z,19.20
2022-08-20T05:26:04.706Z,19.16
2022-08-20T05:28:32.020Z,19.23
2022-08-20T05:31:00.864Z,19.21
2022-08-20T05:33:29.889Z,19.05
2022-08-20T05:35:57.392Z,19.14
2022-08-20T05:38:27.481Z,19.30
2022-08-20T05:40:53.877Z,19.39
2022-08-20T05:43:20.939Z,19.40
2022-08-20T05:45:50.066Z,19.42
2022-08-20T05:48:21.467Z,19.55
2022-08-20T05:50:50.175Z,19.55
2022-08-20T05:53:18.694Z,19.43
2022-08-20T05:55:45.711Z,19.49
2022-08-20T05:58:19.248Z,19.58
2022-08-20T06:00:45.658Z,19.62
2022-08-20T06:03:12.063Z,19.84
2022-08-20T06:05:38.410Z,19.82
2022-08-20T06:08:09.417Z,19.89
2022-08-20T06:10:37.023Z,19.98
2022-08-20T06:13:04.493Z,20.11
2022-08-20T06:15:31.757Z,20.18
2022-08-20T06:17:58.765Z,20.22
2022-08-20T06:20:25.719Z,20.32
2022-08-20T06:22:52.092Z,20.35
2022-08-20T06:25:18.706Z,20.15
2022-08-20T06:27:45.065Z,20.19
2022-08-20T06:30:14.961Z,20.28
2022-08-20T06:32:41.738Z,20.16
2022-08-20T06:35:10.469Z,20.16
2022-08-20T06:37:39.176Z,19.94
2022-08-20T06:40:18.340Z,19.91
2022-08-20T06:42:48.623Z,20.03
2022-08-20T06:45:18.774Z,20.12
2022-08-20T06:47:47.174Z,20.11
2022-08-20T06:50:19.662Z,20.27
2022-08-20T06:52:52.791Z,20.60
2022-08-20T06:55:20.443Z,20.79
2022-08-20T06:57:46.880Z,20.59
2022-08-20T07:00:18.052Z,20.76
2022-08-20T07:02:44.471Z,20.88
2022-08-20T07:05:10.837Z,20.86
2022-08-20T07:07:37.339Z,20.38
2022-08-20T07:10:07.454Z,20.53
2022-08-20T07:12:33.978Z,20.51
2022-08-20T07:15:00.514Z,20.40
2022-08-20T07:17:26.900Z,20.17
2022-08-20T07:19:53.242Z,19.99
2022-08-20T07:22:19.714Z,19.82
2022-08-20T07:24:49.087Z,19.81
2022-08-20T07:27:20.844Z,20.11
2022-08-20T07:29:47.202Z,20.26
2022-08-20T07:32:13.622Z,20.10
2022-08-20T07:34:41.061Z,20.12
2022-08-20T07:37:11.079Z,20.22
2022-08-20T07:39:37.467Z,20.18
2022-08-20T07:42:05.617Z,20.31
2022-08-20T07:44:32.010Z,20.18
2022-08-20T07:46:59.077Z,20.13
2022-08-20T07:49:25.622Z,20.19
2022-08-20T07:51:52.199Z,20.14
2022-08-20T07:54:18.526Z,20.22
2022-08-20T07:56:44.884Z,20.60
2022-08-20T07:59:11.222Z,20.73
2022-08-20T08:01:37.548Z,20.60
2022-08-20T08:04:04.365Z,20.41
2022-08-20T08:06:31.874Z,20.44
2022-08-20T08:09:04.770Z,20.63
2022-08-20T08:11:34.239Z,21.09
2022-08-20T08:14:01.153Z,20.92
2022-08-20T08:16:29.020Z,21.22
2022-08-20T08:18:55.762Z,21.67
2022-08-20T08:21:22.350Z,22.01
2022-08-20T08:23:48.811Z,21.95
2022-08-20T08:26:18.762Z,21.37
2022-08-20T08:28:46.688Z,21.25
2022-08-20T08:31:13.962Z,21.72
2022-08-20T08:33:40.961Z,21.93
2022-08-20T08:36:11.829Z,22.08
2022-08-20T08:38:40.870Z,22.03
2022-08-20T08:41:17.506Z,22.32
2022-08-20T08:43:46.239Z,21.96
2022-08-20T08:46:15.246Z,22.49
2022-08-20T08:48:44.155Z,22.92
2022-08-20T08:51:15.152Z,23.41
2022-08-20T08:53:46.774Z,22.71
2022-08-20T08:56:15.225Z,21.79
2022-08-20T08:58:42.973Z,21.70
2022-08-20T09:01:13.762Z,21.76
2022-08-20T09:03:59.379Z,22.14
2022-08-20T09:06:26.457Z,22.60
2022-08-20T09:08:56.553Z,23.02
2022-08-20T09:11:24.229Z,23.23
2022-08-20T09:13:52.036Z,23.30
2022-08-20T09:16:18.460Z,23.60
2022-08-20T09:18:44.947Z,23.52
2022-08-20T09:21:11.519Z,22.77
2022-08-20T09:23:38.300Z,22.79
2022-08-20T09:26:04.698Z,22.85
2022-08-20T09:28:32.523Z,23.13
2022-08-20T09:31:02.760Z,23.01
2022-08-20T09:33:30.926Z,23.20
2022-08-20T09:35:57.260Z,23.40
2022-08-20T09:38:23.987Z,23.36
2022-08-20T09:40:50.594Z,22.73
2022-08-20T09:43:16.949Z,22.30
2022-08-20T09:45:43.330Z,22.40
2022-08-20T09:48:10.299Z,22.07
2022-08-20T09:50:37.330Z,22.12
2022-08-20T09:53:05.455Z,22.53
2022-08-20T09:55:39.961Z,22.64
2022-08-20T09:58:17.001Z,23.29
2022-08-20T10:00:43.390Z,22.77
2022-08-20T10:03:09.730Z,23.16
2022-08-20T10:05:36.102Z,22.51
2022-08-20T10:08:07.604Z,21.65
2022-08-20T10:10:34.543Z,21.34
2022-08-20T10:13:01.277Z,21.25
2022-08-20T10:15:28.641Z,20.98
2022-08-20T10:17:55.027Z,21.01
2022-08-20T10:20:21.738Z,20.93
2022-08-20T10:22:48.065Z,20.62
2022-08-20T10:25:14.551Z,20.97
2022-08-20T10:27:40.886Z,21.66
2022-08-20T10:30:08.065Z,22.12
2022-08-20T10:32:34.577Z,22.23
2022-08-20T10:35:01.113Z,21.93
2022-08-20T10:37:28.195Z,22.05
2022-08-20T10:39:55.029Z,22.85
2022-08-20T10:42:21.532Z,23.26
2022-08-20T10:44:47.876Z,23.16
2022-08-20T10:47:18.904Z,23.09
2022-08-20T10:49:45.523Z,23.26
2022-08-20T10:52:11.868Z,23.14
2022-08-20T10:54:38.603Z,23.77
2022-08-20T10:57:05.230Z,23.98
2022-08-20T10:59:31.563Z,23.79
2022-08-20T11:01:57.977Z,23.59
2022-08-20T11:04:24.376Z,23.44
2022-08-20T11:06:50.727Z,23.40
2022-08-20T11:09:17.060Z,23.21
2022-08-20T11:11:43.409Z,23.12
2022-08-20T11:14:09.781Z,22.83
2022-08-20T11:16:36.119Z,22.40
2022-08-20T11:19:02.504Z,22.03
2022-08-20T11:21:28.822Z,21.96
2022-08-20T11:23:55.170Z,22.34
2022-08-20T11:26:24.710Z,22.62
2022-08-20T11:28:51.079Z,22.95
2022-08-20T11:31:17.437Z,23.07
2022-08-20T11:33:43.789Z,23.21
2022-08-20T11:36:10.159Z,23.64
2022-08-20T11:38:36.515Z,23.58
2022-08-20T11:41:02.849Z,23.45
2022-08-20T11:43:29.203Z,23.44
2022-08-20T11:45:56.265Z,23.19
2022-08-20T11:48:22.802Z,23.39
2022-08-20T11:50:50.772Z,23.30
2022-08-20T11:53:17.329Z,23.78
2022-08-20T11:55:44.040Z,23.79
2022-08-20T11:58:11.063Z,23.93
2022-08-20T12:00:37.451Z,24.06
2022-08-20T12:03:09.272Z,24.56
2022-08-20T12:05:37.638Z,24.83
2022-08-20T12:08:04.276Z,25.31
2022-08-20T12:10:31.334Z,25.80
2022-08-20T12:12:57.962Z,25.57
2022-08-20T12:15:24.620Z,24.07
2022-08-20T12:17:51.005Z,23.81
2022-08-20T12:20:17.412Z,23.59
2022-08-20T12:22:43.826Z,23.64
2022-08-20T12:25:10.675Z,23.35
2022-08-20T12:27:37.824Z,23.56
2022-08-20T12:30:13.925Z,23.81
2022-08-20T12:32:40.878Z,24.44
2022-08-20T12:35:08.712Z,24.41
2022-08-20T12:37:35.823Z,24.30
2022-08-20T12:40:07.141Z,24.45
2022-08-20T12:42:33.753Z,24.43
2022-08-20T12:45:00.918Z,24.66
2022-08-20T12:47:33.323Z,24.20
2022-08-20T12:50:17.231Z,23.95
2022-08-20T12:52:44.813Z,23.61
2022-08-20T12:55:14.062Z,23.59
2022-08-20T12:57:43.649Z,23.86
2022-08-20T13:00:13.422Z,23.85
2022-08-20T13:02:40.032Z,23.77
2022-08-20T13:05:11.320Z,24.16
2022-08-20T13:07:38.653Z,24.23
2022-08-20T13:10:07.503Z,24.79
2022-08-20T13:12:34.319Z,24.83
2022-08-20T13:15:00.774Z,25.35
2022-08-20T13:17:38.967Z,24.76
2022-08-20T13:20:16.780Z,24.69
2022-08-20T13:22:44.311Z,24.40
2022-08-20T13:25:15.127Z,24.28
2022-08-20T13:27:42.474Z,24.16
2022-08-20T13:30:13.378Z,24.38
2022-08-20T13:32:41.036Z,24.53
2022-08-20T13:35:08.330Z,24.92
2022-08-20T13:37:34.888Z,25.14
2022-08-20T13:40:01.848Z,24.85
2022-08-20T13:42:28.353Z,24.76
2022-08-20T13:44:54.793Z,25.18
2022-08-20T13:47:29.819Z,24.81
2022-08-20T13:49:58.002Z,24.14
2022-08-20T13:52:25.950Z,23.79
2022-08-20T13:54:52.681Z,23.55
2022-08-20T13:57:21.256Z,23.37
2022-08-20T13:59:50.482Z,23.76
2022-08-20T14:02:17.903Z,23.98
2022-08-20T14:04:44.702Z,24.14
2022-08-20T14:07:13.130Z,24.27
2022-08-20T14:09:44.444Z,24.32
2022-08-20T14:12:12.030Z,24.26
2022-08-20T14:14:38.623Z,24.24
2022-08-20T14:17:18.641Z,24.28
2022-08-20T14:19:47.093Z,24.04
2022-08-20T14:22:13.838Z,23.89
2022-08-20T14:24:40.315Z,23.69
2022-08-20T14:27:08.598Z,23.58
2022-08-20T14:29:37.451Z,23.67
2022-08-20T14:32:05.154Z,23.83
2022-08-20T14:34:31.929Z,23.54
2022-08-20T14:37:13.835Z,23.70
2022-08-20T14:39:41.214Z,23.81
2022-08-20T14:42:07.966Z,23.71
2022-08-20T14:44:34.476Z,23.36
2022-08-20T14:47:10.839Z,23.51
2022-08-20T14:49:37.288Z,23.48
2022-08-20T14:52:03.989Z,23.31
2022-08-20T14:54:30.366Z,23.00
2022-08-20T14:57:01.949Z,22.86
2022-08-20T14:59:28.846Z,22.84
2022-08-20T15:01:55.221Z,22.73
2022-08-20T15:04:23.700Z,22.75
2022-08-20T15:06:52.753Z,22.79
2022-08-20T15:09:21.423Z,22.55
2022-08-20T15:11:47.826Z,22.51
2022-08-20T15:14:15.076Z,22.46
2022-08-20T15:16:44.931Z,22.40
2022-08-20T15:19:11.301Z,22.48
2022-08-20T15:21:45.240Z,22.59
2022-08-20T15:24:18.841Z,22.59
2022-08-20T15:26:46.500Z,22.57
2022-08-20T15:29:22.717Z,22.71
2022-08-20T15:31:49.491Z,22.81
2022-08-20T15:34:18.136Z,22.89
2022-08-20T15:36:45.210Z,22.89
2022-08-20T15:39:11.574Z,22.83
2022-08-20T15:41:37.942Z,22.76
2022-08-20T15:44:04.623Z,22.82
2022-08-20T15:46:36.153Z,22.64
2022-08-20T15:49:11.087Z,22.59
2022-08-20T15:51:47.544Z,22.54
2022-08-20T15:54:20.305Z,22.60
2022-08-20T15:57:11.461Z,22.48
2022-08-20T15:59:54.543Z,22.56
2022-08-20T16:02:42.790Z,22.62
2022-08-20T16:05:25.488Z,22.78
2022-08-20T16:07:56.274Z,22.92
2022-08-20T16:10:26.900Z,23.11
2022-08-20T16:12:57.666Z,23.32
2022-08-20T16:15:30.020Z,23.31
2022-08-20T16:18:07.502Z,23.19
2022-08-20T16:20:48.000Z,23.37
2022-08-20T16:23:20.184Z,23.57
2022-08-20T16:26:24.429Z,23.84
2022-08-20T16:29:10.003Z,23.90
2022-08-20T16:31:47.155Z,23.97
2022-08-20T16:34:34.440Z,24.03
2022-08-20T16:37:22.689Z,24.16
2022-08-20T16:39:59.056Z,24.16
2022-08-20T16:42:33.147Z,24.12
2022-08-20T16:45:00.674Z,24.26
2022-08-20T16:47:31.029Z,24.24
2022-08-20T16:50:08.890Z,24.23
2022-08-20T16:52:35.310Z,24.17
2022-08-20T16:55:01.743Z,24.03
2022-08-20T16:57:29.922Z,24.10
2022-08-20T17:00:11.989Z,24.12
2022-08-20T17:03:01.626Z,24.15
2022-08-20T17:05:47.526Z,23.75
2022-08-20T17:08:28.871Z,23.69
2022-08-20T17:11:01.052Z,23.62
2022-08-20T17:13:31.365Z,23.46
2022-08-20T17:16:01.669Z,23.16
2022-08-20T17:18:36.999Z,22.98
2022-08-20T17:21:12.549Z,23.07
2022-08-20T17:23:55.592Z,23.13
2022-08-20T17:26:31.254Z,22.99
2022-08-20T17:29:00.828Z,22.99
2022-08-20T17:31:40.177Z,22.82
2022-08-20T17:34:28.647Z,22.78
2022-08-20T17:37:08.147Z,22.67
2022-08-20T17:39:34.669Z,22.69
2022-08-20T17:42:09.070Z,22.65
2022-08-20T17:44:42.227Z,22.51
2022-08-20T17:47:14.127Z,22.42
2022-08-20T17:50:00.494Z,22.44
2022-08-20T17:52:44.074Z,22.34
2022-08-20T17:55:12.396Z,22.20
2022-08-20T17:57:42.957Z,22.18
2022-08-20T18:00:14.760Z,22.03
2022-08-20T18:02:42.654Z,22.11
2022-08-20T18:05:15.935Z,21.92
2022-08-20T18:08:04.844Z,21.86
2022-08-20T18:10:42.174Z,21.86
2022-08-20T18:13:19.475Z,21.76
2022-08-20T18:15:58.265Z,21.40
2022-08-20T18:18:56.521Z,21.17
2022-08-20T18:21:50.172Z,20.85
2022-08-20T18:24:36.313Z,20.70
2022-08-20T18:27:09.226Z,20.57
2022-08-20T18:29:40.975Z,20.42
2022-08-20T18:32:20.464Z,20.25
2022-08-20T18:34:46.853Z,20.21
2022-08-20T18:37:13.096Z,20.21
2022-08-20T18:39:45.172Z,20.14
2022-08-20T18:42:17.287Z,19.90
2022-08-20T18:44:45.940Z,19.69
2022-08-20T18:47:23.137Z,19.54
2022-08-20T18:50:16.678Z,19.37
2022-08-20T18:52:49.821Z,19.28
2022-08-20T18:55:42.746Z,19.09
2022-08-20T18:58:33.545Z,19.00
2022-08-20T19:01:03.362Z,18.99
2022-08-20T19:03:35.994Z,18.89
2022-08-20T19:06:08.693Z,18.84
2022-08-20T19:08:51.174Z,18.70
2022-08-20T19:11:50.110Z,18.59
2022-08-20T19:14:21.891Z,18.64
2022-08-20T19:16:59.838Z,18.53
2022-08-20T19:19:32.215Z,18.49
2022-08-20T19:22:00.911Z,18.36
2022-08-20T19:24:31.291Z,18.35
2022-08-20T19:27:04.654Z,18.27
2022-08-20T19:29:37.015Z,18.23
2022-08-20T19:32:08.490Z,18.26
2022-08-20T19:34:36.577Z,18.20
2022-08-20T19:37:34.739Z,18.22
2022-08-20T19:39:56.891Z,18.22
2022-08-20T19:42:40.482Z,18.09
2022-08-20T19:45:12.236Z,18.14
2022-08-20T19:48:04.538Z,17.99
2022-08-20T19:50:57.407Z,17.97
2022-08-20T19:53:32.614Z,17.63
2022-08-20T19:56:10.717Z,17.35
2022-08-20T19:58:37.392Z,17.17
2022-08-20T20:01:09.017Z,17.20
2022-08-20T20:03:37.281Z,17.24
2022-08-20T20:06:16.770Z,17.21
2022-08-20T20:08:57.913Z,17.17
2022-08-20T20:11:29.887Z,17.09
2022-08-20T20:14:05.114Z,16.85
2022-08-20T20:16:32.802Z,16.83
2022-08-20T20:19:24.611Z,16.84
2022-08-20T20:21:50.118Z,16.82
2022-08-20T20:24:29.326Z,16.73
2022-08-20T20:26:59.129Z,16.68
2022-08-20T20:29:28.484Z,16.61
2022-08-20T20:31:57.624Z,16.58
2022-08-20T20:34:56.182Z,16.53
2022-08-20T20:37:49.474Z,16.51
2022-08-20T20:40:30.949Z,16.52
2022-08-20T20:43:10.636Z,16.63
2022-08-20T20:45:41.827Z,16.61
2022-08-20T20:48:20.858Z,16.70
2022-08-20T20:50:48.489Z,16.79
2022-08-20T20:53:25.619Z,16.80
2022-08-20T20:56:25.970Z,16.83
2022-08-20T20:58:55.641Z,16.77
2022-08-20T21:01:27.273Z,16.86
2022-08-20T21:04:09.106Z,16.87
2022-08-20T21:06:35.495Z,16.92
2022-08-20T21:09:02.130Z,16.85
2022-08-20T21:11:28.450Z,16.81
2022-08-20T21:13:54.842Z,16.73
2022-08-20T21:16:21.223Z,16.69
2022-08-20T21:18:47.652Z,16.55
2022-08-20T21:21:14.499Z,16.56
2022-08-20T21:23:41.662Z,16.52
2022-08-20T21:26:08.746Z,16.54
2022-08-20T21:28:35.235Z,16.55
2022-08-20T21:31:01.767Z,16.51
2022-08-20T21:33:28.116Z,16.48
2022-08-20T21:35:54.516Z,16.39
2022-08-20T21:38:20.863Z,16.32
2022-08-20T21:40:47.283Z,16.24
2022-08-20T21:43:13.846Z,16.16
2022-08-20T21:45:41.043Z,16.20
2022-08-20T21:48:10.542Z,16.14
2022-08-20T21:50:37.122Z,16.05
2022-08-20T21:53:12.352Z,15.86
2022-08-20T21:55:40.476Z,15.64
2022-08-20T21:58:07.690Z,15.62
2022-08-20T22:00:55.857Z,15.44
2022-08-20T22:03:28.746Z,15.50
2022-08-20T22:05:58.297Z,15.53
2022-08-20T22:08:28.370Z,15.54
2022-08-20T22:10:56.136Z,15.56
2022-08-20T22:13:23.938Z,15.58
2022-08-20T22:15:50.346Z,15.51
2022-08-20T22:18:17.152Z,15.33
2022-08-20T22:20:43.847Z,15.24
2022-08-20T22:23:10.823Z,15.04
2022-08-20T22:25:37.223Z,15.02
2022-08-20T22:28:03.892Z,14.99
2022-08-20T22:30:30.356Z,14.99
2022-08-20T22:33:07.717Z,14.94
2022-08-20T22:35:34.603Z,14.90
2022-08-20T22:38:01.163Z,14.98
2022-08-20T22:40:27.511Z,14.94
2022-08-20T22:42:53.909Z,14.96
2022-08-20T22:45:20.356Z,15.02
2022-08-20T22:47:46.854Z,15.03
2022-08-20T22:50:14.842Z,15.23
2022-08-20T22:52:41.396Z,15.30
2022-08-20T22:55:09.450Z,15.17
2022-08-20T22:57:37.108Z,15.15
2022-08-20T23:00:07.914Z,15.15
2022-08-20T23:02:34.642Z,15.17
2022-08-20T23:05:01.021Z,15.20
2022-08-20T23:07:27.729Z,15.21
2022-08-20T23:09:54.075Z,15.18
2022-08-20T23:12:20.453Z,15.17
2022-08-20T23:14:46.798Z,15.21
2022-08-20T23:17:17.242Z,15.28
2022-08-20T23:19:44.622Z,15.27
2022-08-20T23:22:11.534Z,15.29
2022-08-20T23:24:38.079Z,15.39
2022-08-20T23:27:08.194Z,15.36
2022-08-20T23:29:34.970Z,15.43
2022-08-20T23:32:01.743Z,15.42
2022-08-20T23:34:28.166Z,15.34
2022-08-20T23:36:55.984Z,15.25
2022-08-20T23:39:23.421Z,15.29
2022-08-20T23:41:49.773Z,15.04
2022-08-20T23:44:26.138Z,14.95
2022-08-20T23:46:58.744Z,14.84
2022-08-20T23:49:26.108Z,14.97
2022-08-20T23:51:52.596Z,15.06
2022-08-20T23:54:18.962Z,14.85
2022-08-20T23:56:45.418Z,14.70
2022-08-20T23:59:11.818Z,14.66
